createdAt,value
2022-10-09T00:01:26.159Z,1.90
2022-10-09T00:03:54.176Z,2.10
2022-10-09T00:06:22.516Z,1.70
2022-10-09T00:08:49.004Z,2.10
2022-10-09T00:11:18.258Z,1.75
2022-10-09T00:13:44.929Z,1.92
2022-10-09T00:16:13.526Z,1.85
2022-10-09T00:18:41.619Z,1.90
2022-10-09T00:21:17.370Z,1.80
2022-10-09T00:23:43.818Z,1.85
2022-10-09T00:26:10.328Z,2.13
2022-10-09T00:28:38.843Z,1.77
2022-10-09T00:31:06.197Z,1.90
2022-10-09T00:33:33.199Z,2.00
2022-10-09T00:36:03.729Z,1.70
2022-10-09T00:38:30.152Z,2.00
2022-10-09T00:40:56.588Z,1.65
2022-10-09T00:43:40.382Z,1.88
2022-10-09T00:48:33.428Z,1.88
2022-10-09T00:51:01.731Z,1.80
2022-10-09T00:53:31.094Z,1.83
2022-10-09T00:55:58.228Z,1.75
2022-10-09T00:58:25.830Z,1.70
2022-10-09T01:00:53.045Z,1.60
2022-10-09T01:03:19.577Z,2.17
2022-10-09T01:05:56.131Z,1.90
2022-10-09T01:08:27.988Z,1.77
2022-10-09T01:11:01.420Z,1.88
2022-10-09T01:16:03.330Z,2.05
2022-10-09T01:18:37.983Z,1.60
2022-10-09T01:21:12.077Z,2.40
2022-10-09T01:23:52.917Z,1.75
2022-10-09T01:26:34.668Z,1.90
2022-10-09T01:29:06.311Z,1.73
2022-10-09T01:31:37.266Z,1.60
2022-10-09T01:34:05.749Z,1.85
2022-10-09T01:36:32.984Z,1.75
2022-10-09T01:39:02.994Z,2.00
2022-10-09T01:41:29.850Z,2.25
2022-10-09T01:43:56.402Z,1.80
2022-10-09T01:46:27.714Z,1.67
2022-10-09T01:49:10.224Z,1.20
2022-10-09T01:51:45.830Z,2.50
2022-10-09T01:54:15.593Z,2.05
2022-10-09T01:56:46.606Z,1.80
2022-10-09T01:59:17.751Z,2.35
2022-10-09T02:01:47.345Z,1.52
2022-10-09T02:04:15.291Z,1.50
2022-10-09T02:06:42.967Z,1.63
2022-10-09T02:09:13.849Z,1.70
2022-10-09T02:11:44.140Z,1.80
2022-10-09T02:14:10.617Z,1.85
2022-10-09T02:16:39.099Z,1.45
2022-10-09T02:19:13.400Z,1.90
2022-10-09T02:21:46.332Z,2.55
2022-10-09T02:24:17.565Z,1.30
2022-10-09T02:26:44.004Z,1.77
2022-10-09T02:29:12.451Z,1.70
2022-10-09T02:31:41.244Z,1.42
2022-10-09T02:34:11.514Z,1.40
2022-10-09T02:36:39.002Z,1.50
2022-10-09T02:39:06.960Z,1.70
2022-10-09T02:41:34.085Z,2.20
2022-10-09T02:44:00.625Z,1.55
2022-10-09T02:46:27.650Z,1.80
2022-10-09T02:48:54.175Z,1.45
2022-10-09T02:51:22.089Z,2.33
2022-10-09T02:53:48.826Z,1.60
2022-10-09T02:56:15.285Z,1.67
2022-10-09T02:58:41.758Z,1.60
2022-10-09T03:01:08.258Z,1.50
2022-10-09T03:03:34.688Z,1.77
2022-10-09T03:06:01.807Z,1.40
2022-10-09T03:08:30.084Z,1.50
2022-10-09T03:10:56.752Z,1.50
2022-10-09T03:13:23.268Z,1.38
2022-10-09T03:15:49.775Z,1.67
2022-10-09T03:18:16.256Z,1.67
2022-10-09T03:20:42.713Z,1.88
2022-10-09T03:23:09.273Z,1.67
2022-10-09T03:25:37.131Z,1.63
2022-10-09T03:28:03.634Z,1.77
2022-10-09T03:30:30.117Z,1.50
2022-10-09T03:32:56.591Z,1.73
2022-10-09T03:35:23.031Z,1.48
2022-10-09T03:37:49.431Z,1.88
2022-10-09T03:40:15.910Z,1.52
2022-10-09T03:42:43.660Z,1.90
2022-10-09T03:45:10.474Z,1.70
2022-10-09T03:47:36.866Z,1.70
2022-10-09T03:50:03.578Z,1.70
2022-10-09T03:52:30.063Z,1.80
2022-10-09T03:54:56.500Z,1.67
2022-10-09T03:57:22.922Z,1.65
2022-10-09T03:59:50.691Z,1.90
2022-10-09T04:02:17.170Z,1.33
2022-10-09T04:04:43.607Z,1.83
2022-10-09T04:07:10.049Z,1.60
2022-10-09T04:09:36.464Z,1.88
2022-10-09T04:12:02.901Z,1.52
2022-10-09T04:14:29.328Z,2.25
2022-10-09T04:16:57.112Z,1.33
2022-10-09T04:19:23.515Z,1.70
2022-10-09T04:21:50.135Z,1.55
2022-10-09T04:24:16.818Z,1.38
2022-10-09T04:26:43.269Z,1.50
2022-10-09T04:29:10.713Z,1.30
2022-10-09T04:31:37.310Z,1.20
2022-10-09T04:34:05.384Z,1.40
2022-10-09T04:36:31.879Z,1.65
2022-10-09T04:38:58.423Z,1.50
2022-10-09T04:41:24.913Z,1.63
2022-10-09T04:43:54.606Z,1.42
2022-10-09T04:46:21.760Z,1.33
2022-10-09T04:48:48.603Z,1.90
2022-10-09T04:51:17.623Z,1.70
2022-10-09T04:53:44.539Z,1.42
2022-10-09T04:56:16.324Z,1.10
2022-10-09T04:58:43.700Z,1.67
2022-10-09T05:01:13.640Z,1.55
2022-10-09T05:03:40.127Z,1.60
2022-10-09T05:06:09.545Z,1.10
2022-10-09T05:08:37.892Z,1.83
2022-10-09T05:11:06.938Z,1.60
2022-10-09T05:13:37.152Z,1.58
2022-10-09T05:16:05.083Z,1.42
2022-10-09T05:18:31.569Z,1.70
2022-10-09T05:20:57.993Z,1.63
2022-10-09T05:23:24.548Z,1.30
2022-10-09T05:25:55.802Z,1.70
2022-10-09T05:28:22.438Z,1.60
2022-10-09T05:30:48.956Z,1.30
2022-10-09T05:33:15.439Z,1.70
2022-10-09T05:35:50.207Z,1.45
2022-10-09T05:38:16.648Z,1.45
2022-10-09T05:40:50.205Z,1.83
2022-10-09T05:43:18.282Z,1.85
2022-10-09T05:45:44.819Z,1.80
2022-10-09T05:48:11.305Z,1.80
2022-10-09T05:50:37.765Z,1.70
2022-10-09T05:53:04.226Z,1.67
2022-10-09T05:55:30.694Z,1.73
2022-10-09T05:57:57.126Z,1.77
2022-10-09T06:00:24.952Z,1.88
2022-10-09T06:02:52.125Z,1.65
2022-10-09T06:05:18.884Z,1.67
2022-10-09T06:07:46.117Z,1.63
2022-10-09T06:10:12.979Z,1.65
2022-10-09T06:12:39.555Z,1.88
2022-10-09T06:15:07.044Z,1.60
2022-10-09T06:17:34.822Z,1.60
2022-10-09T06:20:01.279Z,2.35
2022-10-09T06:22:27.893Z,2.13
2022-10-09T06:24:54.324Z,1.95
2022-10-09T06:27:20.828Z,1.85
2022-10-09T06:29:47.248Z,1.98
2022-10-09T06:32:13.788Z,1.95
2022-10-09T06:34:41.579Z,1.92
2022-10-09T06:37:07.999Z,2.08
2022-10-09T06:39:34.426Z,2.25
2022-10-09T06:42:00.931Z,1.77
2022-10-09T06:44:27.362Z,1.85
2022-10-09T06:46:53.804Z,2.17
2022-10-09T06:49:20.264Z,2.10
2022-10-09T06:51:48.124Z,2.90
2022-10-09T06:54:15.637Z,3.30
2022-10-09T06:56:42.149Z,3.90
2022-10-09T06:59:09.828Z,4.10
2022-10-09T07:01:36.459Z,4.03
2022-10-09T07:04:04.773Z,5.18
2022-10-09T07:06:33.633Z,3.90
2022-10-09T07:09:04.120Z,4.53
2022-10-09T07:11:32.286Z,3.25
2022-10-09T07:14:00.825Z,3.25
2022-10-09T07:16:29.490Z,3.30
2022-10-09T07:18:55.991Z,3.35
2022-10-09T07:21:22.774Z,3.20
2022-10-09T07:23:49.470Z,2.88
2022-10-09T07:26:19.754Z,3.28
2022-10-09T07:28:47.956Z,3.72
2022-10-09T07:31:15.527Z,3.10
2022-10-09T07:33:42.052Z,2.78
2022-10-09T07:36:10.039Z,3.13
2022-10-09T07:38:36.918Z,3.00
2022-10-09T07:41:05.857Z,3.75
2022-10-09T07:43:35.047Z,3.30
2022-10-09T07:46:02.876Z,4.00
2022-10-09T07:48:29.592Z,3.20
2022-10-09T07:50:56.201Z,3.58
2022-10-09T07:53:22.972Z,3.17
2022-10-09T07:55:49.951Z,3.15
2022-10-09T07:58:17.234Z,3.15
2022-10-09T08:00:45.073Z,3.15
2022-10-09T08:03:11.578Z,2.80
2022-10-09T08:05:38.168Z,3.22
2022-10-09T08:08:04.604Z,2.97
2022-10-09T08:10:31.808Z,2.65
2022-10-09T08:12:58.218Z,3.03
2022-10-09T08:15:25.132Z,3.13
2022-10-09T08:17:53.881Z,3.38
2022-10-09T08:20:20.671Z,3.17
2022-10-09T08:22:47.578Z,3.80
2022-10-09T08:25:14.370Z,3.00
2022-10-09T08:27:40.832Z,3.60
2022-10-09T08:30:08.570Z,3.58
2022-10-09T08:32:35.017Z,3.33
2022-10-09T08:35:02.868Z,3.05
2022-10-09T08:37:29.298Z,3.08
2022-10-09T08:39:55.693Z,3.05
2022-10-09T08:42:28.626Z,2.92
2022-10-09T08:44:55.339Z,2.38
2022-10-09T08:47:30.639Z,3.22
2022-10-09T08:50:03.012Z,3.15
2022-10-09T08:52:39.782Z,3.03
2022-10-09T08:55:22.583Z,3.58
2022-10-09T08:57:51.100Z,3.08
2022-10-09T09:00:20.126Z,2.83
2022-10-09T09:03:27.633Z,2.80
2022-10-09T09:06:02.424Z,3.00
2022-10-09T09:08:39.559Z,3.25
2022-10-09T09:11:21.238Z,2.55
2022-10-09T09:13:57.019Z,2.50
2022-10-09T09:16:31.192Z,2.47
2022-10-09T09:19:13.200Z,3.08
2022-10-09T09:21:47.649Z,2.60
2022-10-09T09:24:18.939Z,2.08
2022-10-09T09:26:50.469Z,2.00
2022-10-09T09:29:22.206Z,2.75
2022-10-09T09:31:53.845Z,2.25
2022-10-09T09:34:24.534Z,2.03
2022-10-09T09:36:55.099Z,2.03
2022-10-09T09:40:23.780Z,3.20
2022-10-09T09:42:15.800Z,2.08
2022-10-09T09:44:49.693Z,1.98
2022-10-09T09:47:22.508Z,1.83
2022-10-09T09:49:57.351Z,2.80
2022-10-09T09:52:26.517Z,2.00
2022-10-09T09:54:56.636Z,1.92
2022-10-09T09:57:30.645Z,2.03
2022-10-09T10:00:07.782Z,1.92
2022-10-09T10:02:34.246Z,1.63
2022-10-09T10:05:05.715Z,2.60
2022-10-09T10:07:33.750Z,2.22
2022-10-09T10:10:14.926Z,2.63
2022-10-09T10:12:43.443Z,2.00
2022-10-09T10:15:22.354Z,3.35
2022-10-09T10:17:54.859Z,1.90
2022-10-09T10:20:21.463Z,1.63
2022-10-09T10:22:52.065Z,2.13
2022-10-09T10:25:23.873Z,2.22
2022-10-09T10:27:55.307Z,1.90
2022-10-09T10:30:21.792Z,1.85
2022-10-09T10:32:55.531Z,2.10
2022-10-09T10:35:25.782Z,2.30
2022-10-09T10:37:58.385Z,1.70
2022-10-09T10:40:30.257Z,2.47
2022-10-09T10:43:06.318Z,1.40
2022-10-09T10:45:38.471Z,2.00
2022-10-09T10:48:09.329Z,1.85
2022-10-09T10:50:42.562Z,1.50
2022-10-09T10:53:18.873Z,1.65
2022-10-09T10:55:54.298Z,1.67
2022-10-09T10:58:30.222Z,1.60
2022-10-09T11:01:13.819Z,1.60
2022-10-09T11:03:53.068Z,1.02
2022-10-09T11:06:26.613Z,1.67
2022-10-09T11:11:34.752Z,1.35
2022-10-09T11:14:20.190Z,1.30
2022-10-09T11:16:56.858Z,1.55
2022-10-09T11:19:43.074Z,1.45
2022-10-09T11:22:23.178Z,1.50
2022-10-09T11:25:03.690Z,1.48
2022-10-09T11:27:39.501Z,1.50
2022-10-09T11:30:10.408Z,1.52
2022-10-09T11:32:43.820Z,1.40
2022-10-09T11:37:43.891Z,1.48
2022-10-09T11:40:16.622Z,1.25
2022-10-09T11:42:48.050Z,1.67
2022-10-09T11:45:23.025Z,1.30
2022-10-09T11:47:59.261Z,1.13
2022-10-09T11:50:39.715Z,1.45
2022-10-09T11:53:10.549Z,1.42
2022-10-09T11:55:37.443Z,2.30
2022-10-09T11:58:10.136Z,1.80
2022-10-09T12:00:36.914Z,1.50
2022-10-09T12:03:07.005Z,1.67
2022-10-09T12:05:39.726Z,1.85
2022-10-09T12:08:08.409Z,1.45
2022-10-09T12:10:35.360Z,2.05
2022-10-09T12:13:04.560Z,1.42
2022-10-09T12:15:40.283Z,2.20
2022-10-09T12:18:20.743Z,2.08
2022-10-09T12:20:49.726Z,1.67
2022-10-09T12:23:28.052Z,1.85
2022-10-09T12:25:56.600Z,1.58
2022-10-09T12:28:29.073Z,1.80
2022-10-09T12:30:59.431Z,1.85
2022-10-09T12:33:30.783Z,1.38
2022-10-09T12:36:00.794Z,1.80
2022-10-09T12:38:28.968Z,1.98
2022-10-09T12:40:59.590Z,1.65
2022-10-09T12:43:26.291Z,1.67
2022-10-09T12:45:53.841Z,1.40
2022-10-09T12:48:23.662Z,1.25
2022-10-09T12:50:50.165Z,1.50
2022-10-09T12:53:19.686Z,1.35
2022-10-09T12:55:49.048Z,1.75
2022-10-09T12:58:19.093Z,1.80
2022-10-09T13:00:47.523Z,1.20
2022-10-09T13:03:26.343Z,1.42
2022-10-09T13:05:53.303Z,1.05
2022-10-09T13:08:26.713Z,1.33
2022-10-09T13:13:22.879Z,1.00
2022-10-09T13:15:59.382Z,1.20
2022-10-09T13:18:27.617Z,1.05
2022-10-09T13:21:02.369Z,1.50
2022-10-09T13:23:30.826Z,1.30
2022-10-09T13:26:01.175Z,1.23
2022-10-09T13:28:30.348Z,0.93
2022-10-09T13:31:05.869Z,1.67
2022-10-09T13:33:33.805Z,0.85
2022-10-09T13:36:00.239Z,1.38
2022-10-09T13:38:28.414Z,1.45
2022-10-09T13:40:57.508Z,1.48
2022-10-09T13:43:25.558Z,1.02
2022-10-09T13:45:52.169Z,1.00
2022-10-09T13:48:18.748Z,1.25
2022-10-09T13:50:46.539Z,1.10
2022-10-09T13:53:13.100Z,1.40
2022-10-09T13:55:39.593Z,0.90
2022-10-09T13:58:06.117Z,0.65
2022-10-09T14:00:32.585Z,1.65
2022-10-09T14:02:59.215Z,1.40
2022-10-09T14:05:25.770Z,1.25
2022-10-09T14:07:53.774Z,1.30
2022-10-09T14:10:23.583Z,1.13
2022-10-09T14:12:50.664Z,1.40
2022-10-09T14:15:18.015Z,1.00
2022-10-09T14:17:44.486Z,1.20
2022-10-09T14:20:11.038Z,1.63
2022-10-09T14:22:37.526Z,1.42
2022-10-09T14:25:06.940Z,1.60
2022-10-09T14:30:05.809Z,0.90
2022-10-09T14:32:32.259Z,0.98
2022-10-09T14:34:58.683Z,1.45
2022-10-09T14:37:40.402Z,1.20
2022-10-09T14:40:10.261Z,1.50
2022-10-09T14:42:37.130Z,0.95
2022-10-09T14:45:04.478Z,0.93
2022-10-09T14:47:31.129Z,1.15
2022-10-09T14:49:57.581Z,1.27
2022-10-09T14:52:24.053Z,1.10
2022-10-09T14:54:50.521Z,1.30
2022-10-09T14:57:18.312Z,1.27
2022-10-09T14:59:44.751Z,0.93
2022-10-09T15:02:14.359Z,1.48
2022-10-09T15:04:40.802Z,1.02
2022-10-09T15:07:07.231Z,1.30
2022-10-09T15:09:33.668Z,1.23
2022-10-09T15:12:00.140Z,2.28
2022-10-09T15:14:27.990Z,1.35
2022-10-09T15:16:54.428Z,1.27
2022-10-09T15:19:20.866Z,1.17
2022-10-09T15:21:50.307Z,1.30
2022-10-09T15:24:16.767Z,1.55
2022-10-09T15:26:43.242Z,1.08
2022-10-09T15:29:11.001Z,1.42
2022-10-09T15:31:40.401Z,1.02
2022-10-09T15:34:09.635Z,1.00
2022-10-09T15:36:38.067Z,1.15
2022-10-09T15:39:04.788Z,1.35
2022-10-09T15:41:32.707Z,1.25
2022-10-09T15:44:01.451Z,1.27
2022-10-09T15:46:29.227Z,1.20
2022-10-09T15:48:57.037Z,0.90
2022-10-09T15:51:24.201Z,1.42
2022-10-09T15:53:51.807Z,1.10
2022-10-09T15:56:20.298Z,0.93
2022-10-09T15:58:46.883Z,0.80
2022-10-09T16:01:14.848Z,1.02
2022-10-09T16:03:41.931Z,1.40
2022-10-09T16:06:11.841Z,0.80
2022-10-09T16:08:38.858Z,1.23
2022-10-09T16:13:42.069Z,0.98
2022-10-09T16:16:10.370Z,0.93
2022-10-09T16:18:36.950Z,1.35
2022-10-09T16:21:04.521Z,1.10
2022-10-09T16:23:32.366Z,1.33
2022-10-09T16:26:00.473Z,1.45
2022-10-09T16:28:27.715Z,1.40
2022-10-09T16:30:54.256Z,1.73
2022-10-09T16:33:21.778Z,1.45
2022-10-09T16:35:48.294Z,1.83
2022-10-09T16:38:15.400Z,2.10
2022-10-09T16:41:03.257Z,1.98
2022-10-09T16:43:32.825Z,2.15
2022-10-09T16:46:09.390Z,2.03
2022-10-09T16:48:35.917Z,2.15
2022-10-09T16:51:02.342Z,2.28
2022-10-09T16:53:28.729Z,2.78
2022-10-09T16:56:06.443Z,2.58
2022-10-09T16:58:32.910Z,2.42
2022-10-09T17:01:00.556Z,2.60
2022-10-09T17:03:27.676Z,2.10
2022-10-09T17:05:54.293Z,1.48
2022-10-09T17:08:20.756Z,1.52
2022-10-09T17:10:47.187Z,2.10
2022-10-09T17:13:14.980Z,2.20
2022-10-09T17:15:41.913Z,1.95
2022-10-09T17:18:08.762Z,1.92
2022-10-09T17:20:35.482Z,1.75
2022-10-09T17:23:01.943Z,2.40
2022-10-09T17:25:28.345Z,1.95
2022-10-09T17:27:55.185Z,2.28
2022-10-09T17:30:23.146Z,2.28
2022-10-09T17:32:49.832Z,2.58
2022-10-09T17:35:16.991Z,2.78
2022-10-09T17:37:43.485Z,2.40
2022-10-09T17:40:10.488Z,2.40
2022-10-09T17:42:36.984Z,1.92
2022-10-09T17:45:03.936Z,2.30
2022-10-09T17:47:31.764Z,2.47
2022-10-09T17:49:58.225Z,2.40
2022-10-09T17:52:24.702Z,2.58
2022-10-09T17:54:51.162Z,2.35
2022-10-09T17:57:17.618Z,2.40
2022-10-09T17:59:44.063Z,2.25
2022-10-09T18:02:10.508Z,1.83
2022-10-09T18:04:38.248Z,2.63
2022-10-09T18:07:04.838Z,2.50
2022-10-09T18:09:31.270Z,2.72
2022-10-09T18:11:57.816Z,2.50
2022-10-09T18:14:24.283Z,2.90
2022-10-09T18:16:50.803Z,2.70
2022-10-09T18:19:17.580Z,2.72
2022-10-09T18:21:47.113Z,3.03
2022-10-09T18:24:14.542Z,2.63
2022-10-09T18:26:41.947Z,3.45
2022-10-09T18:29:08.808Z,2.45
2022-10-09T18:31:35.354Z,3.58
2022-10-09T18:34:01.885Z,3.17
2022-10-09T18:36:29.658Z,2.30
2022-10-09T18:39:00.327Z,2.83
2022-10-09T18:41:27.004Z,3.10
2022-10-09T18:43:53.699Z,2.47
2022-10-09T18:46:24.669Z,2.90
2022-10-09T18:48:53.312Z,3.05
2022-10-09T18:51:22.230Z,2.92
2022-10-09T18:53:52.162Z,2.65
2022-10-09T18:56:20.853Z,3.10
2022-10-09T18:58:49.151Z,2.63
2022-10-09T19:01:15.722Z,3.92
2022-10-09T19:03:44.820Z,2.50
2022-10-09T19:06:14.044Z,2.88
2022-10-09T19:08:40.497Z,2.92
2022-10-09T19:11:06.883Z,3.20
2022-10-09T19:13:34.736Z,2.80
2022-10-09T19:16:01.257Z,3.20
2022-10-09T19:18:27.869Z,3.03
2022-10-09T19:20:54.353Z,3.08
2022-10-09T19:23:20.791Z,3.05
2022-10-09T19:25:48.558Z,3.03
2022-10-09T19:28:15.264Z,3.63
2022-10-09T19:30:43.544Z,2.78
2022-10-09T19:33:10.420Z,3.38
2022-10-09T19:35:44.565Z,3.97
2022-10-09T19:38:11.011Z,3.65
2022-10-09T19:40:37.591Z,3.55
2022-10-09T19:43:04.051Z,3.63
2022-10-09T19:45:30.470Z,3.30
2022-10-09T19:47:58.556Z,3.22
2022-10-09T19:50:25.200Z,3.60
2022-10-09T19:52:51.769Z,3.30
2022-10-09T19:55:18.217Z,3.00
2022-10-09T19:57:44.761Z,3.63
2022-10-09T20:00:12.310Z,2.60
2022-10-09T20:02:38.754Z,2.97
2022-10-09T20:05:07.525Z,2.92
2022-10-09T20:07:34.033Z,2.97
2022-10-09T20:10:00.456Z,3.15
2022-10-09T20:12:26.920Z,2.83
2022-10-09T20:14:53.375Z,2.88
2022-10-09T20:17:19.789Z,3.20
2022-10-09T20:19:46.225Z,2.97
2022-10-09T20:22:14.028Z,3.22
2022-10-09T20:24:40.482Z,3.05
2022-10-09T20:27:07.119Z,2.70
2022-10-09T20:29:33.597Z,3.55
2022-10-09T20:32:00.084Z,2.70
2022-10-09T20:34:26.682Z,4.18
2022-10-09T20:36:53.552Z,2.60
2022-10-09T20:39:21.351Z,3.13
2022-10-09T20:41:48.349Z,3.03
2022-10-09T20:44:15.202Z,2.92
2022-10-09T20:46:42.183Z,3.17
2022-10-09T20:49:11.225Z,2.75
2022-10-09T20:51:38.473Z,2.40
2022-10-09T20:54:06.179Z,2.47
2022-10-09T20:56:34.650Z,2.83
2022-10-09T20:59:01.625Z,2.42
2022-10-09T21:01:28.804Z,3.17
2022-10-09T21:03:56.167Z,2.25
2022-10-09T21:06:23.104Z,2.40
2022-10-09T21:08:50.211Z,2.38
2022-10-09T21:11:18.400Z,2.42
2022-10-09T21:13:47.986Z,2.10
2022-10-09T21:16:19.808Z,2.30
2022-10-09T21:18:46.469Z,2.22
2022-10-09T21:21:14.775Z,2.28
2022-10-09T21:23:42.034Z,2.88
2022-10-09T21:26:11.973Z,2.35
2022-10-09T21:28:38.611Z,2.25
2022-10-09T21:31:09.063Z,2.88
2022-10-09T21:33:35.604Z,2.60
2022-10-09T21:36:02.226Z,2.50
2022-10-09T21:38:28.680Z,2.63
2022-10-09T21:40:55.127Z,2.40
2022-10-09T21:43:21.550Z,2.20
2022-10-09T21:45:49.555Z,2.63
2022-10-09T21:48:17.802Z,2.75
2022-10-09T21:50:44.387Z,2.60
2022-10-09T21:53:11.132Z,2.50
2022-10-09T21:55:38.143Z,2.33
2022-10-09T21:58:04.793Z,2.55
2022-10-09T22:00:31.432Z,2.20
2022-10-09T22:02:57.927Z,2.40
2022-10-09T22:05:25.895Z,2.35
2022-10-09T22:07:52.407Z,3.40
2022-10-09T22:10:19.177Z,2.13
2022-10-09T22:12:45.607Z,2.58
2022-10-09T22:15:12.027Z,2.60
2022-10-09T22:17:38.479Z,2.60
2022-10-09T22:20:05.732Z,2.50
2022-10-09T22:22:33.481Z,2.58
2022-10-09T22:24:59.997Z,3.05
2022-10-09T22:27:26.611Z,2.47
2022-10-09T22:29:53.277Z,2.50
2022-10-09T22:32:19.731Z,2.80
2022-10-09T22:34:46.320Z,2.58
2022-10-09T22:37:12.728Z,2.20
2022-10-09T22:39:40.472Z,1.67
2022-10-09T22:42:06.918Z,2.15
2022-10-09T22:44:33.384Z,2.45
2022-10-09T22:46:59.877Z,2.20
2022-10-09T22:49:26.343Z,2.40
2022-10-09T22:51:52.813Z,2.28
2022-10-09T22:54:19.952Z,2.38
2022-10-09T22:56:48.358Z,1.92
2022-10-09T22:59:16.508Z,2.17
2022-10-09T23:01:45.503Z,2.42
2022-10-09T23:04:14.525Z,2.00
2022-10-09T23:06:42.643Z,2.15
2022-10-09T23:09:11.747Z,2.25
2022-10-09T23:11:38.223Z,2.00
2022-10-09T23:14:06.297Z,2.28
2022-10-09T23:16:33.807Z,1.67
2022-10-09T23:19:06.114Z,2.08
2022-10-09T23:21:33.131Z,2.17
2022-10-09T23:23:59.686Z,2.22
2022-10-09T23:26:28.177Z,2.03
2022-10-09T23:28:56.607Z,1.77
2022-10-09T23:31:25.251Z,2.20
2022-10-09T23:33:51.838Z,2.13
2022-10-09T23:36:20.510Z,2.03
2022-10-09T23:38:47.532Z,2.10
2022-10-09T23:41:16.300Z,2.13
2022-10-09T23:43:45.877Z,2.28
2022-10-09T23:46:15.141Z,2.15
2022-10-09T23:48:43.457Z,2.17
2022-10-09T23:51:10.293Z,1.85
2022-10-09T23:53:37.469Z,1.77
2022-10-09T23:56:06.363Z,2.20
2022-10-09T23:58:32.822Z,1.92
